Amston, Connecticut
Current Conditions -  °F | °C
As of 12:52 PM on Wednesday 28 Jan 2015 (Local Time) from KIJD Reporting Station
Few Clouds Few Clouds  
Wind Chill: 13°   Ceiling: Unl
Heat Index: 23°   Visibility: 10mi
Dew Point:   Wind: 9mph
Humidity: 50%   Direction: 340°NNW
Pressure: 29.99"   Gusts: NA
Location:  41.63°N, 72.34°W
Report Text: KIJD 281752Z AUTO 34008KT 10SM FEW120 M05/M14 A2999 RMK AO2 SLP159 T10501139 11044 21106 53004
Loading
Personal Weather Stations






























Interactive Weather Map New forecast layout! Learn more

10-Day Weather Forecast

Advertisements
Track Severe Weather on mobile